createdAt,value
2023-05-08T00:00:18.911Z,102182.72
2023-05-08T00:02:51.656Z,102158.09
2023-05-08T00:05:20.231Z,102161.50
2023-05-08T00:07:48.465Z,102157.16
2023-05-08T00:10:16.673Z,102172.84
2023-05-08T00:12:46.219Z,102175.00
2023-05-08T00:15:14.380Z,102125.72
2023-05-08T00:17:48.144Z,102179.03
2023-05-08T00:20:16.463Z,102178.88
2023-05-08T00:22:50.276Z,102180.03
2023-05-08T00:25:18.751Z,102143.03
2023-05-08T00:27:48.312Z,102180.50
2023-05-08T00:30:18.540Z,102178.97
2023-05-08T00:32:47.065Z,102184.69
2023-05-08T00:35:15.488Z,102171.63
2023-05-08T00:37:43.819Z,102181.63
2023-05-08T00:40:13.278Z,102155.56
2023-05-08T00:42:41.734Z,102184.53
2023-05-08T00:45:14.624Z,102180.41
2023-05-08T00:47:43.456Z,102177.50
2023-05-08T00:50:12.966Z,102182.81
2023-05-08T00:52:44.069Z,102187.69
2023-05-08T00:55:12.356Z,102186.28
2023-05-08T00:57:44.269Z,102190.13
2023-05-08T01:00:19.431Z,102182.75
2023-05-08T01:02:48.495Z,102182.94
2023-05-08T01:05:16.763Z,102182.06
2023-05-08T01:07:45.214Z,102179.38
2023-05-08T01:10:13.574Z,102178.53
2023-05-08T01:13:06.398Z,102137.13
2023-05-08T01:15:44.878Z,102165.97
2023-05-08T01:18:21.195Z,102179.94
2023-05-08T01:21:14.575Z,102160.91
2023-05-08T01:24:37.704Z,102137.69
2023-05-08T01:27:54.609Z,102177.56
2023-05-08T01:31:02.869Z,102143.22
2023-05-08T01:33:37.898Z,102172.69
2023-05-08T01:36:22.227Z,102157.38
2023-05-08T01:39:05.279Z,102168.94
2023-05-08T01:41:42.242Z,102187.44
2023-05-08T01:44:17.916Z,102181.72
2023-05-08T01:46:51.300Z,102195.72
2023-05-08T01:49:31.700Z,102202.72
2023-05-08T01:52:04.688Z,102186.53
2023-05-08T01:54:43.993Z,102207.13
2023-05-08T01:57:13.616Z,102196.16
2023-05-08T01:59:44.100Z,102197.25
2023-05-08T02:02:13.263Z,102208.66
2023-05-08T02:04:45.529Z,102203.53
2023-05-08T02:07:13.988Z,102204.22
2023-05-08T02:09:44.029Z,102207.44
2023-05-08T02:12:14.434Z,102216.31
2023-05-08T02:14:45.976Z,102204.94
2023-05-08T02:17:17.731Z,102202.94
2023-05-08T02:19:49.012Z,102197.03
2023-05-08T02:22:19.633Z,102191.28
2023-05-08T02:24:48.177Z,102191.34
2023-05-08T02:27:17.590Z,102208.53
2023-05-08T02:29:46.136Z,102204.00
2023-05-08T02:32:17.280Z,102218.13
2023-05-08T02:35:01.889Z,102190.63
2023-05-08T02:37:32.181Z,102225.31
2023-05-08T02:40:00.830Z,102219.25
2023-05-08T02:42:29.124Z,102210.41
2023-05-08T02:44:57.502Z,102213.53
2023-05-08T02:47:31.087Z,102208.88
2023-05-08T02:50:05.981Z,102188.16
2023-05-08T02:52:44.147Z,102183.56
2023-05-08T02:55:24.214Z,102181.44
2023-05-08T02:58:04.095Z,102209.75
2023-05-08T03:00:38.957Z,102203.94
2023-05-08T03:03:16.576Z,102203.00
2023-05-08T03:05:52.634Z,102184.69
2023-05-08T03:08:27.147Z,102191.13
2023-05-08T03:11:00.941Z,102177.25
2023-05-08T03:13:33.307Z,102194.28
2023-05-08T03:16:04.632Z,102194.03
2023-05-08T03:18:37.138Z,102152.31
2023-05-08T03:21:09.239Z,102187.47
2023-05-08T03:23:40.407Z,102183.47
2023-05-08T03:26:09.789Z,102194.97
2023-05-08T03:28:39.482Z,102192.81
2023-05-08T03:31:08.363Z,102170.78
2023-05-08T03:33:39.844Z,102175.84
2023-05-08T03:36:10.315Z,102199.03
2023-05-08T03:38:38.592Z,102194.19
2023-05-08T03:41:08.818Z,102189.13
2023-05-08T03:43:38.989Z,102165.66
2023-05-08T03:46:08.071Z,102187.97
2023-05-08T03:48:36.996Z,102184.41
2023-05-08T03:51:06.516Z,102167.91
2023-05-08T03:53:38.588Z,102126.34
2023-05-08T03:56:07.173Z,102195.69
2023-05-08T03:58:42.700Z,102185.97
2023-05-08T04:01:29.709Z,102188.03
2023-05-08T04:04:08.113Z,102169.03
2023-05-08T04:06:50.097Z,102193.53
2023-05-08T04:09:35.598Z,102189.19
2023-05-08T04:12:13.836Z,102198.00
2023-05-08T04:14:49.574Z,102194.66
2023-05-08T04:17:29.046Z,102201.56
2023-05-08T04:20:06.017Z,102152.16
2023-05-08T04:22:36.516Z,102170.03
2023-05-08T04:25:10.287Z,102206.66
2023-05-08T04:27:39.425Z,102199.25
2023-05-08T04:30:10.871Z,102188.13
2023-05-08T04:32:43.428Z,102194.16
2023-05-08T04:35:14.469Z,102215.16
2023-05-08T04:37:43.933Z,102188.88
2023-05-08T04:40:14.559Z,102214.31
2023-05-08T04:42:47.185Z,102205.06
2023-05-08T04:45:20.218Z,102215.16
2023-05-08T04:47:48.474Z,102217.22
2023-05-08T04:50:17.353Z,102188.41
2023-05-08T04:52:45.516Z,102224.19
2023-05-08T04:55:15.148Z,102220.97
2023-05-08T04:57:44.531Z,102239.38
2023-05-08T05:00:15.012Z,102236.16
2023-05-08T05:02:44.740Z,102217.84
2023-05-08T05:05:13.348Z,102233.88
2023-05-08T05:07:42.503Z,102247.53
2023-05-08T05:10:11.973Z,102246.22
2023-05-08T05:12:41.550Z,102246.75
2023-05-08T05:15:11.680Z,102228.47
2023-05-08T05:17:41.029Z,102256.19
2023-05-08T05:20:12.264Z,102257.53
2023-05-08T05:22:40.747Z,102258.41
2023-05-08T05:25:11.179Z,102257.72
2023-05-08T05:27:41.452Z,102264.44
2023-05-08T05:30:10.939Z,102250.47
2023-05-08T05:32:39.520Z,102264.44
2023-05-08T05:35:12.115Z,102266.13
2023-05-08T05:37:41.308Z,102267.66
2023-05-08T05:40:13.414Z,102268.00
2023-05-08T05:42:44.343Z,102269.31
2023-05-08T05:45:13.435Z,102275.03
2023-05-08T05:47:50.506Z,102273.22
2023-05-08T05:50:22.561Z,102273.56
2023-05-08T05:52:51.078Z,102263.78
2023-05-08T05:55:19.432Z,102275.59
2023-05-08T05:57:50.006Z,102279.50
2023-05-08T06:00:19.516Z,102288.75
2023-05-08T06:02:54.704Z,102288.78
2023-05-08T06:05:23.160Z,102277.00
2023-05-08T06:07:51.413Z,102268.41
2023-05-08T06:10:20.007Z,102294.03
2023-05-08T06:12:49.579Z,102292.84
2023-05-08T06:15:18.494Z,102284.53
2023-05-08T06:17:48.123Z,102303.09
2023-05-08T06:20:16.480Z,102303.41
2023-05-08T06:22:44.716Z,102299.06
2023-05-08T06:25:13.154Z,102300.25
2023-05-08T06:27:41.494Z,102289.81
2023-05-08T06:30:12.754Z,102305.16
2023-05-08T06:32:41.072Z,102300.09
2023-05-08T06:35:12.302Z,102296.56
2023-05-08T06:37:40.695Z,102298.56
2023-05-08T06:40:12.529Z,102303.81
2023-05-08T06:42:42.085Z,102299.59
2023-05-08T06:45:12.576Z,102305.31
2023-05-08T06:47:41.226Z,102294.19
2023-05-08T06:50:10.614Z,102303.13
2023-05-08T06:52:40.781Z,102295.75
2023-05-08T06:55:09.980Z,102295.75
2023-05-08T06:57:43.389Z,102296.25
2023-05-08T07:00:15.002Z,102301.81
2023-05-08T07:02:43.263Z,102302.28
2023-05-08T07:05:11.853Z,102298.56
2023-05-08T07:07:40.248Z,102282.22
2023-05-08T07:10:09.597Z,102285.59
2023-05-08T07:12:38.112Z,102290.16
2023-05-08T07:15:17.789Z,102295.03
2023-05-08T07:17:54.920Z,102299.06
2023-05-08T07:20:24.425Z,102296.41
2023-05-08T07:22:52.863Z,102296.84
2023-05-08T07:25:21.025Z,102276.44
2023-05-08T07:27:49.430Z,102292.53
2023-05-08T07:30:17.885Z,102296.63
2023-05-08T07:32:46.127Z,102295.59
2023-05-08T07:35:15.839Z,102295.28
2023-05-08T07:37:44.679Z,102296.00
2023-05-08T07:40:13.279Z,102267.50
2023-05-08T07:42:42.783Z,102254.09
2023-05-08T07:45:13.992Z,102289.91
2023-05-08T07:47:51.409Z,102284.41
2023-05-08T07:50:22.276Z,102264.19
2023-05-08T07:52:50.995Z,102268.81
2023-05-08T07:55:22.599Z,102276.53
2023-05-08T07:57:50.912Z,102260.81
2023-05-08T08:00:22.800Z,102283.94
2023-05-08T08:02:53.215Z,102274.56
2023-05-08T08:05:23.187Z,102288.19
2023-05-08T08:07:56.941Z,102287.53
2023-05-08T08:10:35.814Z,102267.09
2023-05-08T08:13:16.039Z,102289.94
2023-05-08T08:15:44.270Z,102288.69
2023-05-08T08:18:13.033Z,102295.03
2023-05-08T08:20:42.710Z,102311.63
2023-05-08T08:23:10.933Z,102274.31
2023-05-08T08:25:42.494Z,102283.22
2023-05-08T08:28:16.302Z,102298.78
2023-05-08T08:30:44.461Z,102306.03
2023-05-08T08:33:12.783Z,102307.34
2023-05-08T08:35:45.139Z,102260.47
2023-05-08T08:38:13.516Z,102307.56
2023-05-08T08:40:41.895Z,102293.41
2023-05-08T08:43:10.943Z,102295.81
2023-05-08T08:45:39.614Z,102297.94
2023-05-08T08:48:12.643Z,102287.75
2023-05-08T08:50:47.255Z,102300.47
2023-05-08T08:53:25.586Z,102268.78
2023-05-08T08:55:57.057Z,102300.59
2023-05-08T08:58:36.526Z,102293.78
2023-05-08T09:01:08.957Z,102298.28
2023-05-08T09:03:37.393Z,102292.88
2023-05-08T09:06:07.764Z,102298.09
2023-05-08T09:08:36.366Z,102268.53
2023-05-08T09:11:06.924Z,102301.03
2023-05-08T09:13:35.293Z,102301.28
2023-05-08T09:16:03.881Z,102284.72
2023-05-08T09:18:32.323Z,102307.44
2023-05-08T09:21:01.821Z,102304.84
2023-05-08T09:23:31.569Z,102309.44
2023-05-08T09:26:01.758Z,102305.56
2023-05-08T09:28:36.078Z,102305.69
2023-05-08T09:31:10.100Z,102302.50
2023-05-08T09:33:49.254Z,102296.03
2023-05-08T09:36:29.408Z,102300.69
2023-05-08T09:39:02.766Z,102303.34
2023-05-08T09:41:35.488Z,102297.75
2023-05-08T09:44:07.029Z,102277.00
2023-05-08T09:46:36.163Z,102297.75
2023-05-08T09:49:07.764Z,102296.59
2023-05-08T09:51:37.669Z,102292.59
2023-05-08T09:54:25.386Z,102296.22
2023-05-08T09:56:54.471Z,102294.75
2023-05-08T09:59:30.839Z,102293.47
2023-05-08T10:02:11.021Z,102299.44
2023-05-08T10:04:42.305Z,102294.25
2023-05-08T10:07:10.466Z,102291.91
2023-05-08T10:09:50.319Z,102298.56
2023-05-08T10:12:22.253Z,102298.13
2023-05-08T10:14:50.774Z,102293.06
2023-05-08T10:17:31.536Z,102272.09
2023-05-08T10:20:04.904Z,102278.09
2023-05-08T10:22:37.976Z,102297.25
2023-05-08T10:25:17.228Z,102299.94
2023-05-08T10:27:54.921Z,102281.72
2023-05-08T10:30:28.221Z,102290.50
2023-05-08T10:32:59.348Z,102263.72
2023-05-08T10:35:28.361Z,102289.94
2023-05-08T10:37:58.230Z,102271.72
2023-05-08T10:40:28.022Z,102275.72
2023-05-08T10:42:58.524Z,102284.50
2023-05-08T10:45:29.773Z,102283.47
2023-05-08T10:48:09.775Z,102276.53
2023-05-08T10:50:56.471Z,102282.19
2023-05-08T10:53:37.853Z,102269.84
2023-05-08T10:56:09.493Z,102273.97
2023-05-08T10:58:39.492Z,102261.88
2023-05-08T11:01:20.178Z,102256.84
2023-05-08T11:03:51.974Z,102266.59
2023-05-08T11:06:45.969Z,102275.41
2023-05-08T11:09:25.377Z,102267.03
2023-05-08T11:12:09.228Z,102268.00
2023-05-08T11:14:43.493Z,102252.19
2023-05-08T11:17:13.804Z,102260.63
2023-05-08T11:20:02.235Z,102258.53
2023-05-08T11:22:33.214Z,102247.63
2023-05-08T11:25:05.410Z,102236.34
2023-05-08T11:27:41.522Z,102252.69
2023-05-08T11:30:35.913Z,102234.84
2023-05-08T11:33:30.710Z,102252.44
2023-05-08T11:36:02.530Z,102225.38
2023-05-08T11:38:38.145Z,102240.63
2023-05-08T11:41:08.730Z,102233.81
2023-05-08T11:44:20.953Z,102255.56
2023-05-08T11:46:53.684Z,102251.28
2023-05-08T11:49:27.127Z,102254.56
2023-05-08T11:52:00.803Z,102257.69
2023-05-08T11:54:33.658Z,102251.69
2023-05-08T11:57:02.858Z,102221.28
2023-05-08T11:59:37.719Z,102233.06
2023-05-08T12:02:09.196Z,102221.06
2023-05-08T12:04:50.986Z,102211.31
2023-05-08T12:07:20.628Z,102239.13
2023-05-08T12:09:53.526Z,102239.69
2023-05-08T12:12:26.572Z,102237.38
2023-05-08T12:14:56.393Z,102204.69
2023-05-08T12:17:24.879Z,102234.00
2023-05-08T12:19:56.628Z,102225.03
2023-05-08T12:22:26.388Z,102201.13
2023-05-08T12:24:55.835Z,102197.44
2023-05-08T12:27:26.445Z,102225.44
2023-05-08T12:29:56.043Z,102220.56
2023-05-08T12:32:24.929Z,102210.53
2023-05-08T12:34:56.684Z,102207.94
2023-05-08T12:37:27.980Z,102209.63
2023-05-08T12:39:56.488Z,102210.56
2023-05-08T12:42:40.709Z,102218.06
2023-05-08T12:45:20.787Z,102208.63
2023-05-08T12:47:50.663Z,102211.72
2023-05-08T12:50:25.225Z,102210.72
2023-05-08T12:52:54.344Z,102209.44
2023-05-08T12:55:27.311Z,102201.50
2023-05-08T12:58:04.326Z,102198.06
2023-05-08T13:00:39.324Z,102176.41
2023-05-08T13:03:09.102Z,102198.41
2023-05-08T13:05:39.660Z,102198.63
2023-05-08T13:08:10.859Z,102199.19
2023-05-08T13:10:50.149Z,102180.47
2023-05-08T13:13:20.789Z,102192.06
2023-05-08T13:15:52.120Z,102202.84
2023-05-08T13:18:22.570Z,102206.97
2023-05-08T13:20:50.820Z,102201.66
2023-05-08T13:23:18.995Z,102187.47
2023-05-08T13:25:47.311Z,102200.19
2023-05-08T13:28:15.866Z,102186.50
2023-05-08T13:30:45.156Z,102173.34
2023-05-08T13:33:14.737Z,102189.09
2023-05-08T13:35:44.863Z,102194.66
2023-05-08T13:38:13.175Z,102193.88
2023-05-08T13:40:41.565Z,102197.53
2023-05-08T13:43:09.841Z,102176.19
2023-05-08T13:45:40.916Z,102194.47
2023-05-08T13:48:09.219Z,102183.53
2023-05-08T13:50:42.062Z,102173.25
2023-05-08T13:53:11.413Z,102174.97
2023-05-08T13:55:39.872Z,102179.16
2023-05-08T13:58:08.187Z,102177.06
2023-05-08T14:00:36.532Z,102175.53
2023-05-08T14:03:08.914Z,102169.06
2023-05-08T14:05:38.570Z,102151.84
2023-05-08T14:08:06.769Z,102158.56
2023-05-08T14:10:35.018Z,102174.53
2023-05-08T14:13:03.280Z,102166.78
2023-05-08T14:15:37.092Z,102161.97
2023-05-08T14:18:06.432Z,102160.31
2023-05-08T14:20:34.670Z,102156.16
2023-05-08T14:23:04.260Z,102151.13
2023-05-08T14:25:32.417Z,102164.72
2023-05-08T14:28:00.661Z,102159.50
2023-05-08T14:30:30.896Z,102155.28
2023-05-08T14:33:02.123Z,102154.88
2023-05-08T14:35:30.404Z,102136.44
2023-05-08T14:37:58.831Z,102136.44
2023-05-08T14:40:31.485Z,102136.00
2023-05-08T14:42:59.750Z,102151.34
2023-05-08T14:45:27.997Z,102157.09
2023-05-08T14:47:56.179Z,102156.50
2023-05-08T14:50:24.679Z,102161.09
2023-05-08T14:52:52.906Z,102166.78
2023-05-08T14:55:22.087Z,102165.31
2023-05-08T14:57:52.817Z,102144.75
2023-05-08T15:00:21.535Z,102156.53
2023-05-08T15:02:54.341Z,102152.50
2023-05-08T15:05:22.849Z,102147.50
2023-05-08T15:07:55.815Z,102156.88
2023-05-08T15:10:24.321Z,102143.47
2023-05-08T15:12:54.041Z,102136.50
2023-05-08T15:15:22.481Z,102165.13
2023-05-08T15:17:50.713Z,102153.63
2023-05-08T15:20:21.279Z,102142.59
2023-05-08T15:22:50.806Z,102153.50
2023-05-08T15:25:19.407Z,102155.50
2023-05-08T15:27:53.806Z,102145.47
2023-05-08T15:30:24.965Z,102155.50
2023-05-08T15:32:56.336Z,102150.03
2023-05-08T15:35:27.343Z,102160.97
2023-05-08T15:37:58.634Z,102131.81
2023-05-08T15:40:26.847Z,102165.41
2023-05-08T15:42:55.113Z,102147.19
2023-05-08T15:45:25.095Z,102165.72
2023-05-08T15:47:53.293Z,102166.75
2023-05-08T15:50:22.289Z,102171.25
2023-05-08T15:52:55.569Z,102167.44
2023-05-08T15:55:23.957Z,102172.03
2023-05-08T15:57:56.622Z,102168.66
2023-05-08T16:00:43.972Z,102169.69
2023-05-08T16:03:16.566Z,102167.34
2023-05-08T16:05:44.897Z,102146.13
2023-05-08T16:08:15.043Z,102173.84
2023-05-08T16:10:43.724Z,102181.19
2023-05-08T16:13:24.073Z,102157.63
2023-05-08T16:15:56.636Z,102146.09
2023-05-08T16:18:29.530Z,102180.03
2023-05-08T16:20:57.929Z,102171.00
2023-05-08T16:23:26.404Z,102155.66
2023-05-08T16:25:54.821Z,102169.28
2023-05-08T16:28:23.008Z,102159.41
2023-05-08T16:30:51.265Z,102157.72
2023-05-08T16:33:21.339Z,102163.22
2023-05-08T16:35:49.713Z,102161.63
2023-05-08T16:38:20.470Z,102152.47
2023-05-08T16:40:50.655Z,102141.19
2023-05-08T16:43:19.016Z,102132.09
2023-05-08T16:45:47.359Z,102138.53
2023-05-08T16:48:15.527Z,102134.56
2023-05-08T16:50:45.127Z,102103.84
2023-05-08T16:53:13.336Z,102148.81
2023-05-08T16:55:41.625Z,102120.50
2023-05-08T16:58:10.205Z,102138.06
2023-05-08T17:00:38.676Z,102133.81
2023-05-08T17:03:09.867Z,102132.34
2023-05-08T17:05:41.027Z,102136.06
2023-05-08T17:08:11.828Z,102132.13
2023-05-08T17:10:41.372Z,102096.94
2023-05-08T17:13:15.572Z,102118.38
2023-05-08T17:15:46.907Z,102091.94
2023-05-08T17:18:15.192Z,102121.06
2023-05-08T17:20:43.419Z,102125.47
2023-05-08T17:23:13.156Z,102119.88
2023-05-08T17:25:41.423Z,102117.13
2023-05-08T17:28:09.610Z,102097.88
2023-05-08T17:30:40.294Z,102116.81
2023-05-08T17:33:11.336Z,102119.25
2023-05-08T17:35:42.183Z,102129.22
2023-05-08T17:38:16.985Z,102122.41
2023-05-08T17:40:46.654Z,102113.16
2023-05-08T17:43:14.904Z,102127.91
2023-05-08T17:45:48.318Z,102106.13
2023-05-08T17:48:18.948Z,102125.66
2023-05-08T17:50:47.159Z,102127.88
2023-05-08T17:53:20.055Z,102123.16
2023-05-08T17:55:50.868Z,102114.75
2023-05-08T17:58:19.047Z,102075.81
2023-05-08T18:00:47.186Z,102094.19
2023-05-08T18:03:15.862Z,102105.72
2023-05-08T18:05:45.936Z,102112.59
2023-05-08T18:08:17.408Z,102113.19
2023-05-08T18:10:47.548Z,102101.06
2023-05-08T18:13:18.268Z,102097.41
2023-05-08T18:15:49.625Z,102098.69
2023-05-08T18:18:20.542Z,102050.59
2023-05-08T18:20:48.730Z,102078.88
2023-05-08T18:23:18.361Z,102099.41
2023-05-08T18:25:49.582Z,102108.66
2023-05-08T18:28:17.848Z,102079.44
2023-05-08T18:30:46.146Z,102078.75
2023-05-08T18:33:14.430Z,102088.25
2023-05-08T18:35:42.539Z,102092.13
2023-05-08T18:38:13.814Z,102083.69
2023-05-08T18:40:44.839Z,102100.19
2023-05-08T18:43:15.937Z,102092.50
2023-05-08T18:45:44.127Z,102097.38
2023-05-08T18:48:14.579Z,102101.63
2023-05-08T18:50:42.783Z,102049.50
2023-05-08T18:53:10.971Z,102109.47
2023-05-08T18:55:40.709Z,102116.63
2023-05-08T18:58:13.629Z,102115.47
2023-05-08T19:00:42.131Z,102111.22
2023-05-08T19:03:14.969Z,102108.56
2023-05-08T19:05:43.310Z,102121.38
2023-05-08T19:08:15.749Z,102119.19
2023-05-08T19:10:44.045Z,102086.88
2023-05-08T19:13:14.423Z,102096.81
2023-05-08T19:15:54.145Z,102111.47
2023-05-08T19:18:26.970Z,102068.25
2023-05-08T19:20:55.191Z,102083.59
2023-05-08T19:23:23.646Z,102085.75
2023-05-08T19:25:52.879Z,102105.97
2023-05-08T19:28:27.774Z,102120.78
2023-05-08T19:30:55.977Z,102117.59
2023-05-08T19:33:24.348Z,102119.78
2023-05-08T19:35:52.513Z,102099.41
2023-05-08T19:38:23.652Z,102128.72
2023-05-08T19:40:56.296Z,102130.22
2023-05-08T19:43:27.486Z,102131.44
2023-05-08T19:45:56.844Z,102127.88
2023-05-08T19:48:25.295Z,102127.22
2023-05-08T19:51:00.301Z,102114.91
2023-05-08T19:53:31.384Z,102144.41
2023-05-08T19:55:59.632Z,102147.94
2023-05-08T19:58:29.219Z,102136.13
2023-05-08T20:00:57.450Z,102149.44
2023-05-08T20:03:25.812Z,102142.38
2023-05-08T20:05:54.909Z,102132.44
2023-05-08T20:08:23.150Z,102130.91
2023-05-08T20:10:51.519Z,102126.88
2023-05-08T20:13:19.916Z,102097.25
2023-05-08T20:15:54.081Z,102134.78
2023-05-08T20:18:24.383Z,102134.09
2023-05-08T20:20:52.588Z,102136.66
2023-05-08T20:23:20.762Z,102141.19
2023-05-08T20:25:48.984Z,102133.94
2023-05-08T20:28:22.268Z,102108.50
2023-05-08T20:30:52.753Z,102123.00
2023-05-08T20:33:22.377Z,102129.06
2023-05-08T20:35:56.619Z,102123.00
2023-05-08T20:38:24.876Z,102117.94
2023-05-08T20:41:00.128Z,102118.13
2023-05-08T20:43:29.338Z,102116.59
2023-05-08T20:45:59.102Z,102105.81
2023-05-08T20:48:27.550Z,102105.16
2023-05-08T20:50:57.620Z,102128.72
2023-05-08T20:53:32.045Z,102124.34
2023-05-08T20:56:18.642Z,102127.03
2023-05-08T20:58:49.945Z,102125.00
2023-05-08T21:01:23.132Z,102100.75
2023-05-08T21:03:51.420Z,102071.63
2023-05-08T21:06:22.444Z,102102.13
2023-05-08T21:08:57.829Z,102101.28
2023-05-08T21:11:27.837Z,102110.53
2023-05-08T21:13:57.846Z,102089.50
2023-05-08T21:16:28.966Z,102077.69
2023-05-08T21:19:09.841Z,102114.09
2023-05-08T21:21:39.021Z,102111.72
2023-05-08T21:24:09.857Z,102043.66
2023-05-08T21:26:38.031Z,102085.78
2023-05-08T21:29:06.397Z,102093.69
2023-05-08T21:31:36.371Z,102095.03
2023-05-08T21:34:15.035Z,102079.91
2023-05-08T21:36:43.443Z,102077.53
2023-05-08T21:39:11.611Z,102069.97
2023-05-08T21:41:39.797Z,102057.50
2023-05-08T21:44:08.796Z,102042.88
2023-05-08T21:46:39.903Z,102063.72
2023-05-08T21:49:08.352Z,102061.03
2023-05-08T21:51:41.840Z,102063.22
2023-05-08T21:54:14.162Z,102061.88
2023-05-08T21:56:42.380Z,102053.97
2023-05-08T21:59:10.562Z,102047.72
2023-05-08T22:01:44.841Z,102045.69
2023-05-08T22:04:13.055Z,102052.81
2023-05-08T22:06:49.059Z,102045.00
2023-05-08T22:09:18.828Z,102038.47
2023-05-08T22:11:47.012Z,102034.25
2023-05-08T22:14:23.990Z,102040.28
2023-05-08T22:16:59.075Z,102017.41
2023-05-08T22:19:30.057Z,102025.66
2023-05-08T22:21:59.587Z,102023.78
2023-05-08T22:24:28.146Z,102012.53
2023-05-08T22:26:56.345Z,102008.81
2023-05-08T22:29:27.911Z,102001.91
2023-05-08T22:32:00.282Z,102006.63
2023-05-08T22:34:28.465Z,102009.66
2023-05-08T22:36:58.928Z,102008.31
2023-05-08T22:39:29.700Z,101983.91
2023-05-08T22:42:00.355Z,101987.13
2023-05-08T22:44:31.706Z,101983.91
2023-05-08T22:47:04.404Z,101981.72
2023-05-08T22:49:35.300Z,101980.72
2023-05-08T22:52:08.288Z,101970.28
2023-05-08T22:54:36.779Z,101950.09
2023-05-08T22:57:05.196Z,101941.50
2023-05-08T22:59:38.582Z,101970.47
2023-05-08T23:02:09.760Z,101962.38
2023-05-08T23:04:37.975Z,101954.13
2023-05-08T23:07:06.934Z,101958.16
2023-05-08T23:09:37.657Z,101951.59
2023-05-08T23:12:11.367Z,101927.91
2023-05-08T23:14:39.487Z,101951.59
2023-05-08T23:17:15.115Z,101948.25
2023-05-08T23:19:44.819Z,101944.38
2023-05-08T23:22:13.097Z,101946.22
2023-05-08T23:24:46.283Z,101931.59
2023-05-08T23:27:17.204Z,101934.44
2023-05-08T23:29:47.228Z,101932.94
2023-05-08T23:32:24.741Z,101930.91
2023-05-08T23:34:52.994Z,101935.81
2023-05-08T23:37:25.926Z,101934.44
2023-05-08T23:39:56.493Z,101931.59
2023-05-08T23:42:24.654Z,101931.59
2023-05-08T23:44:59.344Z,101934.94
2023-05-08T23:47:29.993Z,101932.44
2023-05-08T23:50:00.219Z,101912.03
2023-05-08T23:52:31.416Z,101934.56
2023-05-08T23:55:04.857Z,101922.13
2023-05-08T23:57:36.059Z,101932.41
